createdAt,value
2022-09-05T00:02:39.205Z,16.80
2022-09-05T00:05:28.447Z,16.80
2022-09-05T00:08:06.190Z,16.70
2022-09-05T00:10:50.418Z,16.70
2022-09-05T00:13:35.619Z,16.70
2022-09-05T00:16:30.304Z,16.70
2022-09-05T00:22:20.109Z,16.60
2022-09-05T00:24:34.755Z,16.60
2022-09-05T00:25:30.691Z,16.60
2022-09-05T00:28:25.185Z,16.50
2022-09-05T00:31:55.223Z,16.50
2022-09-05T00:34:11.941Z,16.40
2022-09-05T00:36:46.437Z,16.40
2022-09-05T00:39:19.154Z,16.40
2022-09-05T00:41:50.583Z,16.30
2022-09-05T00:44:21.756Z,16.30
2022-09-05T00:47:02.131Z,16.30
2022-09-05T00:49:38.437Z,16.30
2022-09-05T00:52:11.903Z,16.30
2022-09-05T00:54:54.623Z,16.20
2022-09-05T00:57:47.912Z,16.20
2022-09-05T01:00:19.875Z,16.20
2022-09-05T01:03:30.852Z,16.20
2022-09-05T01:06:27.789Z,16.10
2022-09-05T01:09:32.486Z,16.10
2022-09-05T01:12:17.060Z,16.10
2022-09-05T01:15:14.543Z,16.00
2022-09-05T01:18:04.130Z,16.00
2022-09-05T01:20:44.426Z,16.00
2022-09-05T01:23:45.511Z,16.00
2022-09-05T01:26:49.094Z,16.00
2022-09-05T01:29:26.685Z,15.90
2022-09-05T01:32:10.301Z,15.90
2022-09-05T01:34:50.420Z,15.90
2022-09-05T01:37:29.657Z,15.90
2022-09-05T01:40:16.910Z,15.90
2022-09-05T01:42:58.757Z,15.90
2022-09-05T01:45:42.167Z,15.90
2022-09-05T01:48:22.441Z,15.80
2022-09-05T01:50:58.108Z,15.80
2022-09-05T01:53:39.882Z,15.80
2022-09-05T01:56:30.029Z,15.80
2022-09-05T01:59:09.301Z,15.70
2022-09-05T02:01:55.772Z,15.70
2022-09-05T02:04:43.586Z,15.70
2022-09-05T02:07:30.874Z,15.60
2022-09-05T02:10:45.377Z,15.60
2022-09-05T02:13:19.534Z,15.60
2022-09-05T02:15:59.031Z,15.60
2022-09-05T02:18:39.190Z,15.50
2022-09-05T02:21:19.433Z,15.50
2022-09-05T02:23:54.084Z,15.50
2022-09-05T02:26:27.437Z,15.40
2022-09-05T02:29:01.082Z,15.40
2022-09-05T02:31:41.994Z,15.40
2022-09-05T02:34:14.678Z,15.30
2022-09-05T02:36:46.252Z,15.40
2022-09-05T02:45:01.379Z,15.40
2022-09-05T02:45:21.694Z,15.30
2022-09-05T02:45:27.295Z,15.30
2022-09-05T02:48:15.450Z,15.30
2022-09-05T02:54:09.285Z,15.20
2022-09-05T02:57:33.867Z,15.20
2022-09-05T02:57:35.597Z,15.20
2022-09-05T03:00:01.518Z,15.10
2022-09-05T03:02:36.825Z,15.10
2022-09-05T03:05:13.600Z,15.10
2022-09-05T03:08:08.874Z,15.10
2022-09-05T03:11:21.577Z,15.00
2022-09-05T03:14:47.784Z,15.00
2022-09-05T03:17:38.422Z,15.00
2022-09-05T03:20:42.563Z,14.90
2022-09-05T03:23:36.953Z,14.90
2022-09-05T03:26:37.668Z,14.90
2022-09-05T03:29:47.227Z,14.90
2022-09-05T03:32:49.214Z,14.90
2022-09-05T03:35:44.866Z,14.90
2022-09-05T03:38:47.143Z,15.00
2022-09-05T03:41:40.098Z,14.90
2022-09-05T03:44:25.800Z,14.90
2022-09-05T03:47:18.726Z,14.90
2022-09-05T03:52:23.373Z,14.90
2022-09-05T03:57:16.929Z,14.80
2022-09-05T03:57:27.818Z,14.80
2022-09-05T03:59:22.734Z,14.80
2022-09-05T04:02:57.925Z,14.80
2022-09-05T04:08:14.026Z,14.70
2022-09-05T04:08:15.371Z,14.80
2022-09-05T04:10:37.434Z,14.70
2022-09-05T04:13:09.921Z,14.70
2022-09-05T04:15:43.405Z,14.60
2022-09-05T04:18:32.706Z,14.60
2022-09-05T04:21:06.375Z,14.60
2022-09-05T04:23:47.683Z,14.50
2022-09-05T04:26:41.039Z,14.60
2022-09-05T04:29:17.354Z,14.50
2022-09-05T04:32:07.416Z,14.50
2022-09-05T04:34:56.895Z,14.50
2022-09-05T04:37:48.729Z,14.50
2022-09-05T04:40:37.019Z,14.60
2022-09-05T04:43:07.585Z,14.60
2022-09-05T04:45:40.378Z,14.60
2022-09-05T04:48:14.112Z,14.60
2022-09-05T04:51:15.676Z,14.70
2022-09-05T04:54:12.250Z,14.60
2022-09-05T04:56:46.212Z,14.70
2022-09-05T05:01:03.062Z,14.70
2022-09-05T05:06:10.847Z,14.60
2022-09-05T05:06:16.898Z,14.70
2022-09-05T05:08:13.666Z,14.60
2022-09-05T05:11:15.839Z,14.70
2022-09-05T05:17:55.151Z,14.70
2022-09-05T05:18:15.158Z,14.80
2022-09-05T05:19:30.930Z,14.80
2022-09-05T05:22:03.929Z,14.80
2022-09-05T05:24:35.246Z,14.90
2022-09-05T05:27:10.242Z,15.00
2022-09-05T05:29:49.470Z,15.00
2022-09-05T05:32:45.194Z,15.10
2022-09-05T05:35:13.152Z,15.10
2022-09-05T05:37:47.206Z,15.20
2022-09-05T05:40:21.857Z,15.20
2022-09-05T05:42:50.249Z,15.30
2022-09-05T05:45:20.829Z,15.30
2022-09-05T05:47:52.880Z,15.40
2022-09-05T05:50:39.024Z,15.50
2022-09-05T05:53:33.618Z,15.50
2022-09-05T05:56:29.699Z,15.60
2022-09-05T05:59:08.367Z,15.70
2022-09-05T06:02:16.745Z,15.80
2022-09-05T06:05:15.626Z,15.90
2022-09-05T06:10:41.709Z,15.90
2022-09-05T06:15:01.324Z,16.00
2022-09-05T06:15:09.153Z,16.00
2022-09-05T06:18:10.277Z,16.20
2022-09-05T06:22:08.806Z,16.30
2022-09-05T06:24:25.558Z,16.30
2022-09-05T06:27:22.819Z,16.30
2022-09-05T06:30:00.843Z,16.40
2022-09-05T06:32:50.196Z,16.50
2022-09-05T06:35:33.782Z,16.60
2022-09-05T06:38:12.379Z,16.60
2022-09-05T06:40:52.801Z,16.70
2022-09-05T06:43:35.234Z,16.70
2022-09-05T06:46:40.859Z,16.90
2022-09-05T06:49:28.353Z,16.90
2022-09-05T06:52:32.548Z,17.00
2022-09-05T06:55:32.005Z,17.10
2022-09-05T06:58:44.731Z,17.20
2022-09-05T07:01:17.582Z,17.20
2022-09-05T07:05:14.697Z,17.30
2022-09-05T07:07:10.340Z,17.40
2022-09-05T07:09:53.867Z,17.50
2022-09-05T07:12:30.252Z,17.50
2022-09-05T07:15:08.854Z,17.60
2022-09-05T07:18:09.917Z,17.70
2022-09-05T07:21:16.640Z,17.80
2022-09-05T07:24:09.897Z,17.90
2022-09-05T07:27:09.159Z,17.90
2022-09-05T07:29:52.441Z,18.00
2022-09-05T07:32:58.152Z,18.10
2022-09-05T07:35:48.251Z,18.20
2022-09-05T07:38:55.143Z,18.20
2022-09-05T07:42:00.339Z,18.20
2022-09-05T07:45:15.649Z,18.30
2022-09-05T08:21:35.658Z,20.00
2022-09-05T08:24:28.339Z,19.90
2022-09-05T08:27:10.090Z,19.90
2022-09-05T08:30:25.927Z,20.00
2022-09-05T08:33:20.788Z,20.10
2022-09-05T08:36:08.841Z,20.20
2022-09-05T08:38:51.281Z,20.40
2022-09-05T08:41:50.026Z,20.60
2022-09-05T08:46:43.266Z,20.70
2022-09-05T08:47:45.237Z,20.70
2022-09-05T08:50:55.674Z,20.80
2022-09-05T08:53:47.288Z,21.00
2022-09-05T08:56:30.486Z,21.20
2022-09-05T08:59:31.666Z,21.20
2022-09-05T09:02:46.936Z,21.20
2022-09-05T09:05:15.088Z,21.40
2022-09-05T09:08:12.769Z,21.60
2022-09-05T09:11:01.134Z,21.60
2022-09-05T09:14:01.126Z,21.80
2022-09-05T09:17:14.093Z,21.90
2022-09-05T09:19:55.918Z,22.10
2022-09-05T09:22:47.609Z,22.20
2022-09-05T09:25:30.716Z,22.20
2022-09-05T09:28:51.431Z,22.30
2022-09-05T09:31:37.969Z,22.40
2022-09-05T09:34:47.388Z,22.60
2022-09-05T09:37:50.718Z,22.70
2022-09-05T09:41:02.191Z,22.70
2022-09-05T09:44:05.258Z,22.90
2022-09-05T09:46:40.438Z,23.00
2022-09-05T09:49:30.003Z,23.00
2022-09-05T09:52:34.272Z,23.10
2022-09-05T09:55:39.132Z,23.10
2022-09-05T09:58:45.873Z,23.30
2022-09-05T10:01:36.739Z,23.50
2022-09-05T10:10:34.718Z,23.60
2022-09-05T10:10:50.760Z,23.70
2022-09-05T10:11:51.438Z,23.80
2022-09-05T10:14:50.826Z,23.80
2022-09-05T10:17:45.557Z,23.90
2022-09-05T10:21:15.337Z,24.10
2022-09-05T10:24:38.330Z,24.20
2022-09-05T10:27:46.599Z,24.30
2022-09-05T10:30:35.440Z,24.50
2022-09-05T10:35:15.023Z,24.70
2022-09-05T10:36:33.458Z,24.90
2022-09-05T10:39:21.832Z,24.80
2022-09-05T10:41:56.721Z,25.00
2022-09-05T10:44:40.491Z,25.20
2022-09-05T10:47:24.942Z,25.40
2022-09-05T10:50:05.260Z,25.40
2022-09-05T10:52:40.089Z,25.50
2022-09-05T10:55:18.736Z,25.60
2022-09-05T10:58:00.991Z,25.70
2022-09-05T11:02:22.429Z,25.90
2022-09-05T11:04:15.418Z,26.30
2022-09-05T11:07:19.022Z,26.40
2022-09-05T11:13:29.328Z,26.40
2022-09-05T11:16:25.434Z,26.50
2022-09-05T11:19:47.910Z,26.60
2022-09-05T11:22:53.050Z,26.60
2022-09-05T11:25:36.227Z,26.70
2022-09-05T11:28:16.196Z,27.30
2022-09-05T11:30:51.483Z,27.50
2022-09-05T11:38:47.716Z,27.70
2022-09-05T11:40:06.456Z,28.20
2022-09-05T11:40:29.976Z,28.50
2022-09-05T11:43:06.132Z,28.30
2022-09-05T11:46:02.921Z,28.60
2022-09-05T11:49:01.328Z,28.60
2022-09-05T11:52:01.932Z,28.70
2022-09-05T11:55:21.252Z,29.20
2022-09-05T11:58:43.218Z,29.40
2022-09-05T12:01:41.568Z,29.60
2022-09-05T12:04:27.637Z,29.60
2022-09-05T12:07:30.272Z,29.20
2022-09-05T12:10:46.074Z,29.30
2022-09-05T12:13:31.358Z,29.40
2022-09-05T12:16:08.119Z,29.80
2022-09-05T12:18:49.955Z,30.00
2022-09-05T12:21:29.548Z,30.40
2022-09-05T12:25:16.187Z,30.30
2022-09-05T12:27:44.016Z,30.60
2022-09-05T12:29:59.992Z,30.50
2022-09-05T12:34:49.129Z,30.70
2022-09-05T12:36:10.228Z,31.00
2022-09-05T12:41:01.347Z,31.40
2022-09-05T12:41:43.151Z,31.70
2022-09-05T12:44:42.346Z,31.90
2022-09-05T12:47:16.965Z,31.90
2022-09-05T12:50:02.502Z,32.00
2022-09-05T12:52:44.260Z,32.40
2022-09-05T12:55:22.396Z,32.50
2022-09-05T12:59:15.049Z,32.40
2022-09-05T13:03:08.862Z,32.30
2022-09-05T13:04:13.224Z,32.80
2022-09-05T13:06:39.210Z,33.10
2022-09-05T13:09:16.500Z,33.00
2022-09-05T13:14:49.703Z,32.90
2022-09-05T13:15:11.509Z,32.70
2022-09-05T13:17:47.214Z,32.80
2022-09-05T13:20:21.403Z,33.50
2022-09-05T13:22:50.967Z,33.30
2022-09-05T13:25:27.156Z,33.50
2022-09-05T13:28:01.506Z,33.90
2022-09-05T13:34:03.109Z,33.90
2022-09-05T13:38:03.850Z,32.80
2022-09-05T13:38:17.739Z,31.20
2022-09-05T13:39:14.413Z,30.10
2022-09-05T13:41:48.814Z,30.30
2022-09-05T13:44:26.676Z,30.90
2022-09-05T13:47:00.819Z,32.10
2022-09-05T13:49:37.217Z,32.80
2022-09-05T13:52:26.345Z,32.60
2022-09-05T13:55:05.524Z,32.10
2022-09-05T13:57:39.027Z,32.60
2022-09-05T14:01:05.004Z,32.50
2022-09-05T14:07:46.314Z,32.90
2022-09-05T14:10:37.062Z,33.80
2022-09-05T14:13:08.416Z,33.90
2022-09-05T14:15:43.192Z,34.50
2022-09-05T14:18:21.351Z,34.30
2022-09-05T14:21:13.728Z,34.30
2022-09-05T14:23:55.965Z,34.00
2022-09-05T14:26:28.578Z,34.00
2022-09-05T14:29:15.091Z,34.00
2022-09-05T14:37:37.483Z,34.80
2022-09-05T14:37:46.366Z,34.60
2022-09-05T14:38:09.578Z,34.10
2022-09-05T14:41:23.485Z,33.90
2022-09-05T14:44:29.784Z,33.90
2022-09-05T14:47:35.315Z,33.70
2022-09-05T14:50:29.289Z,33.40
2022-09-05T14:56:44.379Z,34.00
2022-09-05T15:02:48.284Z,34.30
2022-09-05T15:02:49.756Z,34.50
2022-09-05T15:04:44.679Z,34.10
2022-09-05T15:07:19.663Z,34.20
2022-09-05T15:12:18.120Z,34.70
2022-09-05T15:13:00.214Z,34.10
2022-09-05T15:15:31.863Z,33.10
2022-09-05T15:18:04.925Z,33.80
2022-09-05T15:51:06.637Z,29.30
2022-09-05T15:54:47.646Z,28.80
2022-09-05T15:57:35.837Z,28.30
2022-09-05T16:08:34.159Z,27.70
2022-09-05T16:11:07.717Z,27.20
2022-09-05T16:28:47.036Z,26.40
2022-09-05T16:35:01.872Z,26.20
2022-09-05T16:38:27.313Z,26.00
2022-09-05T16:42:04.667Z,25.90
2022-09-05T16:45:07.034Z,25.70
2022-09-05T16:48:04.640Z,25.60
2022-09-05T16:51:35.523Z,25.50
2022-09-05T16:54:34.809Z,25.50
2022-09-05T16:58:29.916Z,25.40
2022-09-05T17:01:18.288Z,25.40
2022-09-05T17:08:11.380Z,25.20
2022-09-05T17:10:40.293Z,25.10
2022-09-05T17:17:44.051Z,24.80
2022-09-05T17:20:47.444Z,24.70
2022-09-05T17:27:51.172Z,24.60
2022-09-05T17:33:45.284Z,24.10
2022-09-05T17:39:44.515Z,23.90
2022-09-05T17:46:15.385Z,23.70
2022-09-05T17:49:27.895Z,23.60
2022-09-05T17:52:24.570Z,23.50
2022-09-05T17:54:57.402Z,23.40
2022-09-05T17:58:14.184Z,23.30
2022-09-05T18:01:34.887Z,23.30
2022-09-05T18:04:37.197Z,23.20
2022-09-05T18:11:08.910Z,23.10
2022-09-05T18:14:24.611Z,23.00
2022-09-05T18:17:37.217Z,22.90
2022-09-05T18:22:06.287Z,22.90
2022-09-05T18:24:04.426Z,22.70
2022-09-05T18:26:45.316Z,22.70
2022-09-05T18:29:57.895Z,22.60
2022-09-05T18:33:55.923Z,22.60
2022-09-05T18:42:41.422Z,22.50
2022-09-05T18:46:19.069Z,22.40
2022-09-05T18:48:29.989Z,22.40
2022-09-05T18:51:35.215Z,22.30
2022-09-05T18:54:20.724Z,22.20
2022-09-05T18:57:27.293Z,22.20
2022-09-05T19:00:08.028Z,22.10
2022-09-05T19:02:58.829Z,22.10
2022-09-05T19:05:49.804Z,22.00
2022-09-05T19:08:28.630Z,22.00
2022-09-05T19:11:28.476Z,21.90
2022-09-05T19:14:28.790Z,21.90
2022-09-05T19:17:07.508Z,21.90
2022-09-05T19:20:31.501Z,21.80
2022-09-05T19:23:13.236Z,21.70
2022-09-05T19:26:08.244Z,21.70
2022-09-05T19:36:50.269Z,21.60
2022-09-05T19:37:06.831Z,21.40
2022-09-05T19:38:19.532Z,21.40
2022-09-05T19:47:27.464Z,21.30
2022-09-05T19:47:38.727Z,21.20
2022-09-05T19:47:38.913Z,21.20
2022-09-05T19:50:07.757Z,21.10
2022-09-05T19:52:41.915Z,21.00
2022-09-05T19:55:22.250Z,21.00
2022-09-05T19:58:19.174Z,20.90
2022-09-05T20:01:12.118Z,20.80
2022-09-05T20:03:47.424Z,20.80
2022-09-05T20:06:36.723Z,20.70
2022-09-05T20:09:32.903Z,20.60
2022-09-05T20:12:28.295Z,20.60
2022-09-05T20:14:59.189Z,20.50
2022-09-05T20:17:34.615Z,20.50
2022-09-05T20:20:31.404Z,20.40
2022-09-05T20:23:07.454Z,20.40
2022-09-05T20:25:52.199Z,20.30
2022-09-05T20:28:30.235Z,20.30
2022-09-05T20:31:23.569Z,20.30
2022-09-05T20:34:11.977Z,20.20
2022-09-05T20:43:15.327Z,20.10
2022-09-05T20:43:30.952Z,20.10
2022-09-05T20:43:37.355Z,20.10
2022-09-05T20:51:27.935Z,20.10
2022-09-05T20:54:09.741Z,20.00
2022-09-05T20:54:17.181Z,20.00
2022-09-05T20:55:42.500Z,19.90
2022-09-05T20:58:12.576Z,19.90
2022-09-05T21:01:20.465Z,19.90
2022-09-05T21:03:36.772Z,19.80
2022-09-05T21:06:22.105Z,19.80
2022-09-05T21:08:51.053Z,19.70
2022-09-05T21:11:29.431Z,19.70
2022-09-05T21:14:00.781Z,19.60
2022-09-05T21:16:31.715Z,19.60
2022-09-05T21:18:59.878Z,19.50
2022-09-05T21:21:31.268Z,19.50
2022-09-05T21:24:17.432Z,19.40
2022-09-05T21:26:48.423Z,19.40
2022-09-05T21:29:18.272Z,19.40
2022-09-05T21:31:54.968Z,19.40
2022-09-05T21:34:30.195Z,19.40
2022-09-05T21:37:06.897Z,19.30
2022-09-05T21:39:40.361Z,19.20
2022-09-05T21:45:19.651Z,19.20
2022-09-05T21:47:40.904Z,19.20
2022-09-05T21:48:00.957Z,19.20
2022-09-05T21:50:34.116Z,19.20
2022-09-05T21:53:21.452Z,19.10
2022-09-05T21:59:19.473Z,19.10
2022-09-05T21:59:26.708Z,19.00
2022-09-05T22:01:50.744Z,18.90
2022-09-05T22:04:21.304Z,18.90
2022-09-05T22:06:49.638Z,18.90
2022-09-05T22:09:19.981Z,18.90
2022-09-05T22:11:51.494Z,18.80
2022-09-05T22:14:20.688Z,18.80
2022-09-05T22:16:50.633Z,18.80
2022-09-05T22:19:36.803Z,18.70
2022-09-05T22:22:15.796Z,18.70
2022-09-05T22:24:50.011Z,18.70
2022-09-05T22:27:20.006Z,18.60
2022-09-05T22:29:50.334Z,18.60
2022-09-05T22:32:28.534Z,18.50
2022-09-05T22:35:27.330Z,18.50
2022-09-05T22:37:59.173Z,18.50
2022-09-05T22:40:29.812Z,18.50
2022-09-05T22:42:58.852Z,18.40
2022-09-05T22:45:27.492Z,18.40
2022-09-05T22:47:55.697Z,18.40
2022-09-05T22:50:24.625Z,18.30
2022-09-05T22:52:53.037Z,18.30
2022-09-05T22:55:21.080Z,18.30
2022-09-05T22:57:51.019Z,18.20
2022-09-05T23:00:19.195Z,18.20
2022-09-05T23:02:52.160Z,18.10
2022-09-05T23:05:21.148Z,18.10
2022-09-05T23:07:49.091Z,18.00
2022-09-05T23:10:17.579Z,18.10
2022-09-05T23:12:46.257Z,18.00
2022-09-05T23:15:16.136Z,18.00
2022-09-05T23:17:44.121Z,17.90
2022-09-05T23:20:12.409Z,18.00
2022-09-05T23:22:40.455Z,18.00
2022-09-05T23:25:09.770Z,17.90
2022-09-05T23:27:38.158Z,18.00
2022-09-05T23:30:08.060Z,18.00
2022-09-05T23:32:37.782Z,18.10
2022-09-05T23:35:06.341Z,18.00
2022-09-05T23:37:34.285Z,18.00
2022-09-05T23:40:02.570Z,18.00
2022-09-05T23:42:30.857Z,18.00
2022-09-05T23:44:58.866Z,18.00
2022-09-05T23:47:29.007Z,17.90
2022-09-05T23:49:59.079Z,17.80
2022-09-05T23:52:27.099Z,17.80
2022-09-05T23:54:55.087Z,17.70
2022-09-05T23:57:23.943Z,17.70
2022-09-05T23:59:52.929Z,17.70
